createdAt,value
2023-05-05T00:00:22.682Z,44.92
2023-05-05T00:01:22.690Z,44.92
2023-05-05T00:02:22.732Z,45.01
2023-05-05T00:03:23.043Z,44.92
2023-05-05T00:04:22.853Z,44.92
2023-05-05T00:05:22.727Z,44.92
2023-05-05T00:06:22.738Z,45.01
2023-05-05T00:07:22.703Z,45.01
2023-05-05T00:08:22.732Z,45.01
2023-05-05T00:09:22.764Z,45.01
2023-05-05T00:10:22.789Z,44.92
2023-05-05T00:11:22.773Z,45.01
2023-05-05T00:12:22.811Z,45.01
2023-05-05T00:13:22.782Z,45.01
2023-05-05T00:14:22.790Z,45.01
2023-05-05T00:15:22.821Z,45.01
2023-05-05T00:16:22.897Z,45.01
2023-05-05T00:17:22.876Z,45.01
2023-05-05T00:18:22.864Z,45.12
2023-05-05T00:19:22.887Z,45.12
2023-05-05T00:20:22.903Z,45.12
2023-05-05T00:21:22.933Z,45.12
2023-05-05T00:22:22.998Z,45.01
2023-05-05T00:23:22.956Z,45.01
2023-05-05T00:24:22.966Z,45.12
2023-05-05T00:25:22.988Z,45.12
2023-05-05T00:26:23.001Z,45.12
2023-05-05T00:27:23.024Z,45.01
2023-05-05T00:28:23.007Z,45.12
2023-05-05T00:29:23.030Z,45.12
2023-05-05T00:30:23.065Z,45.12
2023-05-05T00:31:23.155Z,45.14
2023-05-05T00:32:23.108Z,45.14
2023-05-05T00:33:23.083Z,45.14
2023-05-05T00:34:23.090Z,45.24
2023-05-05T00:35:23.138Z,45.24
2023-05-05T00:36:23.150Z,45.24
2023-05-05T00:37:23.141Z,45.24
2023-05-05T00:38:23.199Z,45.24
2023-05-05T00:39:23.158Z,45.24
2023-05-05T00:40:23.189Z,45.24
2023-05-05T00:41:23.206Z,45.24
2023-05-05T00:42:23.235Z,45.24
2023-05-05T00:43:23.260Z,45.24
2023-05-05T00:44:23.249Z,45.24
2023-05-05T00:45:23.253Z,45.24
2023-05-05T00:46:23.588Z,45.24
2023-05-05T00:47:23.288Z,45.24
2023-05-05T00:48:23.279Z,45.24
2023-05-05T00:49:23.354Z,45.24
2023-05-05T00:50:23.335Z,45.34
2023-05-05T00:51:23.358Z,45.34
2023-05-05T00:52:23.377Z,45.24
2023-05-05T00:53:23.360Z,45.24
2023-05-05T00:54:23.389Z,45.34
2023-05-05T00:55:23.409Z,45.34
2023-05-05T00:56:23.415Z,45.34
2023-05-05T00:57:23.441Z,45.34
2023-05-05T00:58:23.427Z,45.34
2023-05-05T00:59:23.448Z,45.34
2023-05-05T01:00:23.476Z,45.34
2023-05-05T01:01:23.495Z,45.34
2023-05-05T01:02:23.506Z,45.34
2023-05-05T01:03:23.694Z,45.34
2023-05-05T01:04:23.595Z,45.34
2023-05-05T01:05:23.554Z,45.34
2023-05-05T01:06:23.576Z,45.34
2023-05-05T01:07:23.586Z,45.34
2023-05-05T01:08:23.627Z,45.34
2023-05-05T01:09:23.630Z,45.34
2023-05-05T01:10:23.935Z,45.43
2023-05-05T01:11:23.636Z,45.43
2023-05-05T01:12:23.665Z,45.34
2023-05-05T01:13:23.692Z,45.34
2023-05-05T01:14:23.702Z,45.34
2023-05-05T01:15:23.717Z,45.34
2023-05-05T01:16:23.813Z,45.34
2023-05-05T01:17:23.764Z,45.34
2023-05-05T01:18:23.753Z,45.34
2023-05-05T01:19:23.799Z,45.34
2023-05-05T01:20:23.794Z,45.43
2023-05-05T01:21:23.756Z,45.43
2023-05-05T01:22:23.763Z,45.34
2023-05-05T01:23:23.790Z,45.43
2023-05-05T01:24:23.801Z,45.43
2023-05-05T01:25:23.816Z,45.43
2023-05-05T01:26:23.891Z,45.43
2023-05-05T01:27:23.845Z,45.43
2023-05-05T01:28:23.872Z,45.34
2023-05-05T01:29:23.852Z,45.34
2023-05-05T01:30:23.872Z,45.43
2023-05-05T01:31:23.909Z,45.43
2023-05-05T01:32:23.909Z,45.43
2023-05-05T01:33:23.897Z,45.43
2023-05-05T01:34:23.919Z,45.43
2023-05-05T01:35:23.999Z,45.34
2023-05-05T01:36:23.945Z,45.43
2023-05-05T01:37:24.001Z,45.34
2023-05-05T01:38:23.965Z,45.43
2023-05-05T01:39:23.991Z,45.34
2023-05-05T01:40:24.300Z,45.34
2023-05-05T01:41:24.058Z,45.34
2023-05-05T01:42:24.064Z,45.34
2023-05-05T01:43:24.025Z,45.34
2023-05-05T01:44:24.051Z,45.34
2023-05-05T01:45:24.063Z,45.34
2023-05-05T01:46:24.133Z,45.43
2023-05-05T01:47:24.088Z,45.43
2023-05-05T01:48:24.110Z,45.43
2023-05-05T01:49:24.129Z,45.43
2023-05-05T01:50:24.133Z,45.34
2023-05-05T01:51:24.170Z,45.43
2023-05-05T01:52:24.175Z,45.34
2023-05-05T01:53:24.208Z,45.43
2023-05-05T01:54:24.220Z,45.43
2023-05-05T01:55:24.237Z,45.34
2023-05-05T01:56:24.267Z,45.43
2023-05-05T01:57:24.244Z,45.43
2023-05-05T01:58:24.284Z,45.43
2023-05-05T01:59:24.285Z,45.43
2023-05-05T02:00:24.347Z,45.43
2023-05-05T02:01:24.327Z,45.43
2023-05-05T02:02:24.401Z,45.43
2023-05-05T02:03:24.373Z,45.34
2023-05-05T02:04:24.356Z,45.43
2023-05-05T02:05:24.373Z,45.43
2023-05-05T02:06:24.355Z,45.43
2023-05-05T02:07:24.373Z,45.43
2023-05-05T02:08:24.410Z,45.54
2023-05-05T02:09:24.416Z,45.54
2023-05-05T02:10:24.441Z,45.43
2023-05-05T02:11:24.458Z,45.43
2023-05-05T02:12:24.474Z,45.43
2023-05-05T02:13:24.560Z,45.43
2023-05-05T02:14:24.526Z,45.54
2023-05-05T02:15:24.544Z,45.54
2023-05-05T02:16:24.520Z,45.54
2023-05-05T02:17:24.600Z,45.43
2023-05-05T02:18:24.549Z,45.54
2023-05-05T02:19:24.563Z,45.54
2023-05-05T02:20:24.575Z,45.54
2023-05-05T02:21:24.580Z,45.54
2023-05-05T02:22:24.616Z,45.54
2023-05-05T02:23:24.597Z,45.54
2023-05-05T02:24:24.613Z,45.54
2023-05-05T02:25:24.631Z,45.66
2023-05-05T02:26:24.662Z,45.54
2023-05-05T02:27:24.715Z,45.54
2023-05-05T02:28:24.719Z,45.54
2023-05-05T02:29:24.750Z,45.54
2023-05-05T02:30:24.794Z,45.66
2023-05-05T02:31:24.826Z,45.54
2023-05-05T02:32:24.840Z,45.54
2023-05-05T02:33:24.821Z,45.56
2023-05-05T02:34:24.845Z,45.66
2023-05-05T02:35:24.865Z,45.56
2023-05-05T02:36:24.887Z,45.66
2023-05-05T02:37:25.178Z,45.66
2023-05-05T02:38:24.907Z,45.54
2023-05-05T02:39:24.918Z,45.54
2023-05-05T02:40:24.938Z,45.54
2023-05-05T02:41:24.949Z,45.54
2023-05-05T02:42:24.981Z,45.54
2023-05-05T02:43:24.992Z,45.54
2023-05-05T02:44:24.994Z,45.54
2023-05-05T02:45:24.960Z,45.54
2023-05-05T02:46:25.026Z,45.54
2023-05-05T02:47:25.005Z,45.66
2023-05-05T02:48:24.978Z,45.66
2023-05-05T02:49:24.990Z,45.66
2023-05-05T02:50:25.015Z,45.66
2023-05-05T02:51:25.038Z,45.54
2023-05-05T02:52:25.065Z,45.66
2023-05-05T02:53:25.102Z,45.66
2023-05-05T02:54:25.118Z,45.66
2023-05-05T02:55:25.127Z,45.66
2023-05-05T02:56:25.144Z,45.66
2023-05-05T02:57:25.172Z,45.76
2023-05-05T02:58:25.195Z,45.76
2023-05-05T02:59:25.221Z,45.76
2023-05-05T03:00:25.227Z,45.66
2023-05-05T03:01:25.221Z,45.66
2023-05-05T03:02:25.320Z,45.66
2023-05-05T03:03:25.240Z,45.76
2023-05-05T03:04:25.231Z,45.86
2023-05-05T03:05:25.220Z,45.86
2023-05-05T03:06:25.228Z,45.86
2023-05-05T03:07:25.251Z,45.76
2023-05-05T03:08:25.253Z,45.76
2023-05-05T03:09:25.290Z,45.86
2023-05-05T03:10:25.263Z,45.86
2023-05-05T03:11:25.284Z,45.76
2023-05-05T03:12:25.326Z,45.76
2023-05-05T03:13:25.361Z,45.76
2023-05-05T03:14:25.348Z,45.76
2023-05-05T03:15:25.377Z,45.76
2023-05-05T03:16:25.425Z,45.86
2023-05-05T03:17:25.404Z,45.86
2023-05-05T03:18:25.449Z,45.86
2023-05-05T03:19:25.627Z,45.86
2023-05-05T03:20:25.403Z,45.86
2023-05-05T03:21:25.436Z,45.86
2023-05-05T03:22:25.443Z,45.86
2023-05-05T03:23:25.469Z,45.76
2023-05-05T03:24:25.502Z,45.86
2023-05-05T03:25:25.491Z,45.86
2023-05-05T03:26:25.455Z,45.86
2023-05-05T03:27:25.495Z,45.86
2023-05-05T03:28:25.521Z,45.96
2023-05-05T03:29:25.540Z,45.86
2023-05-05T03:30:25.518Z,45.86
2023-05-05T03:31:25.581Z,45.86
2023-05-05T03:32:25.571Z,45.86
2023-05-05T03:33:25.555Z,45.86
2023-05-05T03:34:25.585Z,45.86
2023-05-05T03:35:25.589Z,45.86
2023-05-05T03:36:27.802Z,45.86
2023-05-05T03:37:25.608Z,45.86
2023-05-05T03:38:25.630Z,45.86
2023-05-05T03:39:25.661Z,45.96
2023-05-05T03:40:36.223Z,45.96
2023-05-05T03:41:25.660Z,45.96
2023-05-05T03:42:25.684Z,45.96
2023-05-05T03:43:25.683Z,45.96
2023-05-05T03:44:25.737Z,45.86
2023-05-05T03:45:25.715Z,45.96
2023-05-05T03:46:25.723Z,45.96
2023-05-05T03:47:25.804Z,45.96
2023-05-05T03:48:25.737Z,45.96
2023-05-05T03:49:25.768Z,45.96
2023-05-05T03:50:25.823Z,45.96
2023-05-05T03:51:25.792Z,45.96
2023-05-05T03:52:25.813Z,45.96
2023-05-05T03:53:25.844Z,45.86
2023-05-05T03:54:25.878Z,45.96
2023-05-05T03:55:25.926Z,45.86
2023-05-05T03:56:25.890Z,45.86
2023-05-05T03:57:25.914Z,45.96
2023-05-05T03:58:25.932Z,45.96
2023-05-05T03:59:25.940Z,45.96
2023-05-05T04:00:25.954Z,45.96
2023-05-05T04:01:25.973Z,45.86
2023-05-05T04:02:26.092Z,45.86
2023-05-05T04:03:26.185Z,45.86
2023-05-05T04:04:26.089Z,45.86
2023-05-05T04:05:26.019Z,45.86
2023-05-05T04:06:26.123Z,45.86
2023-05-05T04:07:26.038Z,45.86
2023-05-05T04:08:26.069Z,45.86
2023-05-05T04:09:26.086Z,45.86
2023-05-05T04:10:26.069Z,45.86
2023-05-05T04:11:26.106Z,45.96
2023-05-05T04:12:26.093Z,45.96
2023-05-05T04:13:26.128Z,46.06
2023-05-05T04:14:26.119Z,46.06
2023-05-05T04:15:26.149Z,46.06
2023-05-05T04:16:26.275Z,46.06
2023-05-05T04:17:26.169Z,45.96
2023-05-05T04:18:26.162Z,45.96
2023-05-05T04:19:26.169Z,45.96
2023-05-05T04:20:26.194Z,45.96
2023-05-05T04:21:26.207Z,45.96
2023-05-05T04:22:26.263Z,45.96
2023-05-05T04:23:26.231Z,45.96
2023-05-05T04:24:26.217Z,45.96
2023-05-05T04:25:26.253Z,45.96
2023-05-05T04:26:26.249Z,45.96
2023-05-05T04:27:26.260Z,45.96
2023-05-05T04:28:26.225Z,45.86
2023-05-05T04:29:26.218Z,45.86
2023-05-05T04:30:26.240Z,45.86
2023-05-05T04:31:26.288Z,45.86
2023-05-05T04:32:26.322Z,45.96
2023-05-05T04:33:26.323Z,45.96
2023-05-05T04:34:26.339Z,45.96
2023-05-05T04:35:26.361Z,45.96
2023-05-05T04:36:26.394Z,45.86
2023-05-05T04:37:26.421Z,45.96
2023-05-05T04:38:26.621Z,45.96
2023-05-05T04:39:26.460Z,45.86
2023-05-05T04:40:26.480Z,45.86
2023-05-05T04:41:28.258Z,45.96
2023-05-05T04:42:26.455Z,45.86
2023-05-05T04:43:26.478Z,45.86
2023-05-05T04:44:26.500Z,45.86
2023-05-05T04:45:26.509Z,45.86
2023-05-05T04:46:26.599Z,45.86
2023-05-05T04:47:26.556Z,45.86
2023-05-05T04:48:26.514Z,45.76
2023-05-05T04:49:26.534Z,45.76
2023-05-05T04:50:26.560Z,45.76
2023-05-05T04:51:26.569Z,45.76
2023-05-05T04:52:26.597Z,45.76
2023-05-05T04:53:26.616Z,45.76
2023-05-05T04:54:26.608Z,45.76
2023-05-05T04:55:26.607Z,45.76
2023-05-05T04:56:26.641Z,45.76
2023-05-05T04:57:26.733Z,45.76
2023-05-05T04:58:26.648Z,45.76
2023-05-05T04:59:26.674Z,45.76
2023-05-05T05:01:52.655Z,45.86
2023-05-05T05:02:52.771Z,45.86
2023-05-05T05:03:52.753Z,45.86
2023-05-05T05:04:52.658Z,45.86
2023-05-05T05:05:52.689Z,45.96
2023-05-05T05:06:52.700Z,45.96
2023-05-05T05:07:52.772Z,46.06
2023-05-05T05:08:52.734Z,46.06
2023-05-05T05:09:52.809Z,45.96
2023-05-05T05:10:52.761Z,46.06
2023-05-05T05:11:52.769Z,46.06
2023-05-05T05:12:52.858Z,46.06
2023-05-05T05:13:52.776Z,45.96
2023-05-05T05:14:52.790Z,46.06
2023-05-05T05:15:52.790Z,45.88
2023-05-05T05:16:52.999Z,45.78
2023-05-05T05:17:52.885Z,45.98
2023-05-05T05:18:52.864Z,45.98
2023-05-05T05:19:52.892Z,45.88
2023-05-05T05:20:52.884Z,45.88
2023-05-05T05:21:52.927Z,45.78
2023-05-05T05:22:52.946Z,45.80
2023-05-05T05:23:52.954Z,45.90
2023-05-05T05:24:52.976Z,45.90
2023-05-05T05:25:53.023Z,45.80
2023-05-05T05:26:53.045Z,46.11
2023-05-05T05:28:08.331Z,46.00
2023-05-05T05:28:53.081Z,46.11
2023-05-05T05:29:53.103Z,46.11
2023-05-05T05:30:53.118Z,46.11
2023-05-05T05:31:53.105Z,46.11
2023-05-05T05:32:53.158Z,46.11
2023-05-05T05:33:53.131Z,46.11
2023-05-05T05:34:53.162Z,46.11
2023-05-05T05:35:53.128Z,46.11
2023-05-05T05:36:53.132Z,46.20
2023-05-05T05:37:53.152Z,46.20
2023-05-05T05:38:53.162Z,46.20
2023-05-05T05:39:53.208Z,46.18
2023-05-05T05:40:53.214Z,46.08
2023-05-05T05:41:53.246Z,46.18
2023-05-05T05:42:53.317Z,46.18
2023-05-05T05:43:53.260Z,46.18
2023-05-05T05:44:53.311Z,46.28
2023-05-05T05:45:53.365Z,46.58
2023-05-05T05:46:53.340Z,46.58
2023-05-05T05:47:53.314Z,46.48
2023-05-05T05:48:53.299Z,46.38
2023-05-05T05:49:53.327Z,46.28
2023-05-05T05:50:53.356Z,46.18
2023-05-05T05:51:53.362Z,46.18
2023-05-05T05:52:53.352Z,46.18
2023-05-05T05:53:53.349Z,46.18
2023-05-05T05:54:53.395Z,46.18
2023-05-05T05:55:53.369Z,46.18
2023-05-05T05:56:53.364Z,46.08
2023-05-05T05:57:53.395Z,46.18
2023-05-05T05:58:53.377Z,46.08
2023-05-05T05:59:53.402Z,46.08
2023-05-05T06:00:53.410Z,46.08
2023-05-05T06:01:53.417Z,46.18
2023-05-05T06:02:53.513Z,45.98
2023-05-05T06:03:53.511Z,45.98
2023-05-05T06:04:53.471Z,45.98
2023-05-05T06:05:53.486Z,45.88
2023-05-05T06:06:53.487Z,45.88
2023-05-05T06:07:53.509Z,45.88
2023-05-05T06:08:53.509Z,45.88
2023-05-05T06:09:53.544Z,45.88
2023-05-05T06:10:53.556Z,45.88
2023-05-05T06:11:53.573Z,45.68
2023-05-05T06:12:53.715Z,45.66
2023-05-05T06:13:53.651Z,45.66
2023-05-05T06:14:53.666Z,45.68
2023-05-05T06:15:53.683Z,45.66
2023-05-05T06:16:53.656Z,45.66
2023-05-05T06:17:53.749Z,45.86
2023-05-05T06:18:53.667Z,45.96
2023-05-05T06:19:54.599Z,45.86
2023-05-05T06:20:53.707Z,45.76
2023-05-05T06:21:53.746Z,45.66
2023-05-05T06:22:53.727Z,45.56
2023-05-05T06:23:53.759Z,45.46
2023-05-05T06:24:53.785Z,45.36
2023-05-05T06:25:53.808Z,45.26
2023-05-05T06:26:53.828Z,45.26
2023-05-05T06:27:53.840Z,45.46
2023-05-05T06:28:53.850Z,45.56
2023-05-05T06:29:53.870Z,45.86
2023-05-05T06:30:53.835Z,45.76
2023-05-05T06:31:54.005Z,45.76
2023-05-05T06:32:53.895Z,45.86
2023-05-05T06:33:53.918Z,45.76
2023-05-05T06:34:53.894Z,45.54
2023-05-05T06:35:53.906Z,45.43
2023-05-05T06:36:54.099Z,45.34
2023-05-05T06:37:53.951Z,45.14
2023-05-05T06:38:53.946Z,45.14
2023-05-05T06:39:53.974Z,45.14
2023-05-05T06:40:53.981Z,45.04
2023-05-05T06:41:54.024Z,45.04
2023-05-05T06:42:54.035Z,45.04
2023-05-05T06:43:54.049Z,44.93
2023-05-05T06:44:54.064Z,44.93
2023-05-05T06:45:54.112Z,44.84
2023-05-05T06:46:54.115Z,44.84
2023-05-05T06:47:54.184Z,44.84
2023-05-05T06:48:54.107Z,44.74
2023-05-05T06:49:54.106Z,44.74
2023-05-05T06:50:54.129Z,44.64
2023-05-05T06:51:54.126Z,44.64
2023-05-05T06:52:54.150Z,44.64
2023-05-05T06:53:54.168Z,44.54
2023-05-05T06:54:54.176Z,44.43
2023-05-05T06:55:54.220Z,44.43
2023-05-05T06:56:54.216Z,44.43
2023-05-05T06:57:54.236Z,44.42
2023-05-05T06:58:54.257Z,44.21
2023-05-05T06:59:54.279Z,44.12
2023-05-05T07:00:54.411Z,44.01
2023-05-05T07:01:54.500Z,43.91
2023-05-05T07:02:54.417Z,43.71
2023-05-05T07:03:54.354Z,43.59
2023-05-05T07:04:54.390Z,43.49
2023-05-05T07:05:54.427Z,43.40
2023-05-05T07:06:54.403Z,43.19
2023-05-05T07:07:54.392Z,43.09
2023-05-05T07:08:54.389Z,42.90
2023-05-05T07:09:54.417Z,43.40
2023-05-05T07:10:54.457Z,43.40
2023-05-05T07:11:54.439Z,43.79
2023-05-05T07:12:54.480Z,44.09
2023-05-05T07:13:54.490Z,44.09
2023-05-05T07:14:54.514Z,44.09
2023-05-05T07:15:54.528Z,44.29
2023-05-05T07:16:54.626Z,44.20
2023-05-05T07:17:54.770Z,44.09
2023-05-05T07:18:54.630Z,44.09
2023-05-05T07:19:54.548Z,43.99
2023-05-05T07:20:54.573Z,43.59
2023-05-05T07:21:54.655Z,43.90
2023-05-05T07:22:54.665Z,43.79
2023-05-05T07:23:54.657Z,43.70
2023-05-05T07:24:54.686Z,43.79
2023-05-05T07:25:54.665Z,43.90
2023-05-05T07:26:54.667Z,44.17
2023-05-05T07:27:54.696Z,43.98
2023-05-05T07:28:54.702Z,43.87
2023-05-05T07:29:54.727Z,43.87
2023-05-05T07:30:54.754Z,44.17
2023-05-05T07:31:54.841Z,43.98
2023-05-05T07:32:55.158Z,43.87
2023-05-05T07:33:54.908Z,43.98
2023-05-05T07:34:54.858Z,43.77
2023-05-05T07:35:54.845Z,43.85
2023-05-05T07:36:54.831Z,43.65
2023-05-05T07:37:54.853Z,43.45
2023-05-05T07:38:54.847Z,43.25
2023-05-05T07:39:54.884Z,43.15
2023-05-05T07:40:54.867Z,42.93
2023-05-05T07:41:54.899Z,42.83
2023-05-05T07:42:54.934Z,42.63
2023-05-05T07:43:54.967Z,42.63
2023-05-05T07:44:54.938Z,42.41
2023-05-05T07:45:55.009Z,42.41
2023-05-05T07:46:54.973Z,42.51
2023-05-05T07:47:55.011Z,42.32
2023-05-05T07:48:54.999Z,42.32
2023-05-05T07:49:55.240Z,42.21
2023-05-05T07:50:55.000Z,42.11
2023-05-05T07:51:54.995Z,42.11
2023-05-05T07:53:54.999Z,42.11
2023-05-05T07:54:55.065Z,42.11
2023-05-05T07:55:55.044Z,42.11
2023-05-05T07:56:55.065Z,42.32
2023-05-05T07:57:55.068Z,42.81
2023-05-05T07:58:55.099Z,42.81
2023-05-05T07:59:55.074Z,42.91
2023-05-05T08:00:55.091Z,42.99
2023-05-05T08:01:55.147Z,42.99
2023-05-05T08:02:55.289Z,42.79
2023-05-05T08:03:55.320Z,43.09
2023-05-05T08:04:55.148Z,43.09
2023-05-05T08:05:55.332Z,42.69
2023-05-05T08:06:55.204Z,42.69
2023-05-05T08:07:55.194Z,42.59
2023-05-05T08:08:55.223Z,42.49
2023-05-05T08:09:55.244Z,42.49
2023-05-05T08:10:55.270Z,42.51
2023-05-05T08:11:55.266Z,42.61
2023-05-05T08:12:55.266Z,42.61
2023-05-05T08:13:55.277Z,42.61
2023-05-05T08:14:55.251Z,42.81
2023-05-05T08:15:55.308Z,42.81
2023-05-05T08:16:55.284Z,42.81
2023-05-05T08:17:55.319Z,42.91
2023-05-05T08:18:55.292Z,43.11
2023-05-05T08:19:55.310Z,43.33
2023-05-05T08:20:55.335Z,43.33
2023-05-05T08:21:55.458Z,43.43
2023-05-05T08:22:55.382Z,43.43
2023-05-05T08:23:55.428Z,43.43
2023-05-05T08:24:55.405Z,43.43
2023-05-05T08:25:55.421Z,43.53
2023-05-05T08:26:55.435Z,43.63
2023-05-05T08:27:55.435Z,43.75
2023-05-05T08:28:55.410Z,43.85
2023-05-05T08:29:55.432Z,43.85
2023-05-05T08:30:55.454Z,43.95
2023-05-05T08:31:55.599Z,44.05
2023-05-05T08:32:55.615Z,44.05
2023-05-05T08:33:55.497Z,43.95
2023-05-05T08:34:56.305Z,43.95
2023-05-05T08:35:55.542Z,43.95
2023-05-05T08:36:55.506Z,43.85
2023-05-05T08:37:58.158Z,43.95
2023-05-05T08:38:55.506Z,44.05
2023-05-05T08:39:55.527Z,44.25
2023-05-05T08:40:55.554Z,44.35
2023-05-05T08:41:55.540Z,44.45
2023-05-05T08:42:55.546Z,44.55
2023-05-05T08:43:55.558Z,44.65
2023-05-05T08:44:57.271Z,44.75
2023-05-05T08:45:55.624Z,44.75
2023-05-05T08:46:55.623Z,44.75
2023-05-05T08:47:55.654Z,44.75
2023-05-05T08:48:55.628Z,44.75
2023-05-05T08:49:55.613Z,44.75
2023-05-05T08:50:57.270Z,44.75
2023-05-05T08:51:55.680Z,44.85
2023-05-05T08:52:55.654Z,44.73
2023-05-05T08:53:55.758Z,44.63
2023-05-05T08:54:55.649Z,44.73
2023-05-05T08:55:55.644Z,44.73
2023-05-05T08:56:55.749Z,44.83
2023-05-05T08:57:55.740Z,44.73
2023-05-05T08:58:55.681Z,44.63
2023-05-05T08:59:55.693Z,44.51
2023-05-05T09:00:55.775Z,44.41
2023-05-05T09:01:55.833Z,44.31
2023-05-05T09:02:55.854Z,44.21
2023-05-05T09:03:55.732Z,44.11
2023-05-05T09:04:55.741Z,44.09
2023-05-05T09:05:55.745Z,43.99
2023-05-05T09:06:55.792Z,43.89
2023-05-05T09:07:55.767Z,43.89
2023-05-05T09:08:58.965Z,43.69
2023-05-05T09:09:55.971Z,43.47
2023-05-05T09:10:55.851Z,43.47
2023-05-05T09:11:55.905Z,43.35
2023-05-05T09:12:55.918Z,43.25
2023-05-05T09:13:55.916Z,43.15
2023-05-05T09:14:57.890Z,43.05
2023-05-05T09:15:55.896Z,42.83
2023-05-05T09:16:55.953Z,42.83
2023-05-05T09:17:56.028Z,43.03
2023-05-05T09:18:55.908Z,42.73
2023-05-05T09:19:55.933Z,42.93
2023-05-05T09:20:57.513Z,42.83
2023-05-05T09:21:55.983Z,42.63
2023-05-05T09:22:55.948Z,42.81
2023-05-05T09:23:58.509Z,42.71
2023-05-05T09:24:56.001Z,42.83
2023-05-05T09:25:56.105Z,43.03
2023-05-05T09:26:57.383Z,43.03
2023-05-05T09:27:56.055Z,42.93
2023-05-05T09:28:56.045Z,42.93
2023-05-05T09:29:56.035Z,43.13
2023-05-05T09:30:56.102Z,43.13
2023-05-05T09:31:56.049Z,43.23
2023-05-05T09:32:56.181Z,43.11
2023-05-05T09:33:56.118Z,43.11
2023-05-05T09:34:56.102Z,42.91
2023-05-05T09:35:56.116Z,42.91
2023-05-05T09:36:56.119Z,42.81
2023-05-05T09:37:56.116Z,43.01
2023-05-05T09:38:58.301Z,43.11
2023-05-05T09:39:56.149Z,43.41
2023-05-05T09:40:56.174Z,43.41
2023-05-05T09:41:56.368Z,43.41
2023-05-05T09:42:56.147Z,43.30
2023-05-05T09:43:56.193Z,43.41
2023-05-05T09:44:57.855Z,43.41
2023-05-05T09:45:56.188Z,43.21
2023-05-05T09:46:56.173Z,43.19
2023-05-05T09:47:59.615Z,43.08
2023-05-05T09:48:56.186Z,43.11
2023-05-05T09:49:56.175Z,43.11
2023-05-05T09:50:56.202Z,43.11
2023-05-05T09:51:56.228Z,43.51
2023-05-05T09:52:56.297Z,43.51
2023-05-05T09:53:56.301Z,43.71
2023-05-05T09:54:56.274Z,43.60
2023-05-05T09:55:56.324Z,43.60
2023-05-05T09:56:56.328Z,43.60
2023-05-05T09:57:56.530Z,43.71
2023-05-05T09:58:58.210Z,43.30
2023-05-05T09:59:56.387Z,43.21
2023-05-05T10:00:56.419Z,43.41
2023-05-05T10:01:56.549Z,43.80
2023-05-05T10:02:56.476Z,43.51
2023-05-05T10:03:56.487Z,43.41
2023-05-05T10:04:56.574Z,43.90
2023-05-05T10:05:56.528Z,43.90
2023-05-05T10:06:56.501Z,44.20
2023-05-05T10:07:56.522Z,44.40
2023-05-05T10:08:56.547Z,44.31
2023-05-05T10:09:56.550Z,44.10
2023-05-05T10:10:56.602Z,44.01
2023-05-05T10:11:56.585Z,44.10
2023-05-05T10:12:56.621Z,44.23
2023-05-05T10:13:56.704Z,44.12
2023-05-05T10:14:56.625Z,44.23
2023-05-05T10:15:56.775Z,44.23
2023-05-05T10:16:56.704Z,44.32
2023-05-05T10:18:06.706Z,44.42
2023-05-05T10:18:56.697Z,44.53
2023-05-05T10:19:56.704Z,44.72
2023-05-05T10:20:56.735Z,44.53
2023-05-05T10:21:56.707Z,44.42
2023-05-05T10:22:56.744Z,44.23
2023-05-05T10:23:56.781Z,44.23
2023-05-05T10:24:56.757Z,44.31
2023-05-05T10:25:56.810Z,44.31
2023-05-05T10:26:56.791Z,44.20
2023-05-05T10:27:56.796Z,44.10
2023-05-05T10:28:56.813Z,44.20
2023-05-05T10:29:56.921Z,44.20
2023-05-05T10:30:56.869Z,44.01
2023-05-05T10:31:56.889Z,44.50
2023-05-05T10:33:05.084Z,44.38
2023-05-05T10:33:56.998Z,44.38
2023-05-05T10:34:56.928Z,44.28
2023-05-05T10:35:56.956Z,44.08
2023-05-05T10:36:56.961Z,43.66
2023-05-05T10:37:56.996Z,43.57
2023-05-05T10:38:57.037Z,43.86
2023-05-05T10:39:57.054Z,44.16
2023-05-05T10:40:57.089Z,43.64
2023-05-05T10:41:57.074Z,43.44
2023-05-05T10:42:57.111Z,43.24
2023-05-05T10:43:57.163Z,43.05
2023-05-05T10:44:57.175Z,43.02
2023-05-05T10:45:57.369Z,42.93
2023-05-05T10:46:57.147Z,43.02
2023-05-05T10:47:57.156Z,42.83
2023-05-05T10:48:57.167Z,42.83
2023-05-05T10:49:57.131Z,42.93
2023-05-05T10:50:57.161Z,43.02
2023-05-05T10:51:57.192Z,43.02
2023-05-05T10:52:57.233Z,42.93
2023-05-05T10:53:57.231Z,43.32
2023-05-05T10:54:57.220Z,43.52
2023-05-05T10:55:57.262Z,43.32
2023-05-05T10:56:57.400Z,43.32
2023-05-05T10:57:57.358Z,43.20
2023-05-05T10:59:00.621Z,43.10
2023-05-05T10:59:57.265Z,43.10
2023-05-05T11:00:57.394Z,42.91
2023-05-05T11:01:57.392Z,42.91
2023-05-05T11:02:57.458Z,42.91
2023-05-05T11:03:57.353Z,42.80
2023-05-05T11:04:57.384Z,42.71
2023-05-05T11:05:57.384Z,42.71
2023-05-05T11:06:57.402Z,42.58
2023-05-05T11:07:57.469Z,42.39
2023-05-05T11:08:57.459Z,42.19
2023-05-05T11:09:57.478Z,42.09
2023-05-05T11:10:57.515Z,42.09
2023-05-05T11:11:57.504Z,42.09
2023-05-05T11:12:57.574Z,42.09
2023-05-05T11:13:57.536Z,42.09
2023-05-05T11:14:57.543Z,42.29
2023-05-05T11:15:57.576Z,42.19
2023-05-05T11:16:57.643Z,42.29
2023-05-05T11:17:57.877Z,42.29
2023-05-05T11:18:57.654Z,42.19
2023-05-05T11:19:57.690Z,42.19
2023-05-05T11:20:57.692Z,42.09
2023-05-05T11:21:57.719Z,41.97
2023-05-05T11:22:57.751Z,41.97
2023-05-05T11:23:57.781Z,41.87
2023-05-05T11:24:57.769Z,41.77
2023-05-05T11:25:57.792Z,41.67
2023-05-05T11:26:57.809Z,41.67
2023-05-05T11:27:57.822Z,41.58
2023-05-05T11:28:57.866Z,41.46
2023-05-05T11:29:57.872Z,41.36
2023-05-05T11:30:58.537Z,41.36
2023-05-05T11:31:57.905Z,41.26
2023-05-05T11:32:57.951Z,41.16
2023-05-05T11:33:58.030Z,41.06
2023-05-05T11:34:57.952Z,40.96
2023-05-05T11:35:57.957Z,40.94
2023-05-05T11:36:57.927Z,40.84
2023-05-05T11:37:57.959Z,40.84
2023-05-05T11:38:57.975Z,40.84
2023-05-05T11:39:57.989Z,40.84
2023-05-05T11:40:58.001Z,40.84
2023-05-05T11:41:58.033Z,40.86
2023-05-05T11:42:58.068Z,40.96
2023-05-05T11:43:58.062Z,41.06
2023-05-05T11:44:58.078Z,41.16
2023-05-05T11:45:58.118Z,41.28
2023-05-05T11:47:01.093Z,41.38
2023-05-05T11:47:58.135Z,41.47
2023-05-05T11:48:58.115Z,41.47
2023-05-05T11:49:58.306Z,41.58
2023-05-05T11:50:58.192Z,41.58
2023-05-05T11:51:58.161Z,41.58
2023-05-05T11:52:58.269Z,41.47
2023-05-05T11:53:59.158Z,41.38
2023-05-05T11:54:58.200Z,41.17
2023-05-05T11:55:58.226Z,41.16
2023-05-05T11:56:58.243Z,40.96
2023-05-05T11:57:58.269Z,40.96
2023-05-05T11:58:58.277Z,40.96
2023-05-05T11:59:58.291Z,40.86
2023-05-05T12:00:58.327Z,40.96
2023-05-05T12:01:58.363Z,40.96
2023-05-05T12:02:58.390Z,40.96
2023-05-05T12:03:58.635Z,40.86
2023-05-05T12:04:58.477Z,40.76
2023-05-05T12:05:58.340Z,40.66
2023-05-05T12:06:58.353Z,40.64
2023-05-05T12:07:58.344Z,40.55
2023-05-05T12:08:58.355Z,40.44
2023-05-05T12:09:58.385Z,40.44
2023-05-05T12:10:58.369Z,40.34
2023-05-05T12:11:58.398Z,40.25
2023-05-05T12:12:58.408Z,40.25
2023-05-05T12:13:58.404Z,40.15
2023-05-05T12:14:58.385Z,40.25
2023-05-05T12:15:58.405Z,40.25
2023-05-05T12:16:58.414Z,40.25
2023-05-05T12:18:00.003Z,40.34
2023-05-05T12:18:58.406Z,40.34
2023-05-05T12:19:58.421Z,40.34
2023-05-05T12:20:58.430Z,40.34
2023-05-05T12:21:58.512Z,40.34
2023-05-05T12:22:58.450Z,40.44
2023-05-05T12:23:58.477Z,40.47
2023-05-05T12:24:58.498Z,40.56
2023-05-05T12:25:58.509Z,40.56
2023-05-05T12:26:58.529Z,40.56
2023-05-05T12:27:58.514Z,40.66
2023-05-05T12:28:58.582Z,40.76
2023-05-05T12:29:58.573Z,40.76
2023-05-05T12:30:58.596Z,40.86
2023-05-05T12:31:58.629Z,40.86
2023-05-05T12:32:58.644Z,40.76
2023-05-05T12:33:58.611Z,40.76
2023-05-05T12:34:58.637Z,40.66
2023-05-05T12:35:58.623Z,40.56
2023-05-05T12:36:58.633Z,40.56
2023-05-05T12:37:58.738Z,40.44
2023-05-05T12:38:58.658Z,40.34
2023-05-05T12:39:58.701Z,40.25
2023-05-05T12:40:58.672Z,40.15
2023-05-05T12:41:58.690Z,40.05
2023-05-05T12:42:58.724Z,39.93
2023-05-05T12:43:58.762Z,39.93
2023-05-05T12:44:58.789Z,39.83
2023-05-05T12:45:58.907Z,39.73
2023-05-05T12:46:58.828Z,39.73
2023-05-05T12:47:58.911Z,39.73
2023-05-05T12:48:58.864Z,39.63
2023-05-05T12:49:58.918Z,39.63
2023-05-05T12:50:58.889Z,39.53
2023-05-05T12:51:58.898Z,39.51
2023-05-05T12:52:58.920Z,39.42
2023-05-05T12:53:58.960Z,39.31
2023-05-05T12:54:58.977Z,39.22